createdAt,value
2023-01-02T00:01:36.244Z,77.70
2023-01-02T00:04:04.585Z,78.82
2023-01-02T00:06:37.248Z,76.62
2023-01-02T00:09:06.941Z,78.58
2023-01-02T00:11:35.437Z,77.25
2023-01-02T00:14:03.760Z,77.55
2023-01-02T00:16:32.096Z,77.73
2023-01-02T00:19:00.493Z,77.25
2023-01-02T00:21:28.785Z,77.79
2023-01-02T00:23:57.127Z,78.06
2023-01-02T00:26:25.441Z,77.68
2023-01-02T00:28:53.740Z,79.49
2023-01-02T00:31:22.132Z,78.98
2023-01-02T00:33:50.450Z,77.64
2023-01-02T00:36:18.825Z,78.17
2023-01-02T00:38:47.116Z,78.27
2023-01-02T00:41:15.415Z,75.45
2023-01-02T00:43:44.520Z,76.46
2023-01-02T00:46:12.940Z,75.28
2023-01-02T00:48:41.686Z,75.12
2023-01-02T00:51:10.447Z,76.66
2023-01-02T00:53:39.208Z,76.17
2023-01-02T00:56:07.886Z,76.15
2023-01-02T00:58:36.314Z,75.51
2023-01-02T01:01:05.306Z,75.32
2023-01-02T01:03:33.638Z,75.73
2023-01-02T01:06:08.442Z,76.88
2023-01-02T01:08:38.471Z,76.53
2023-01-02T01:11:11.831Z,76.73
2023-01-02T01:13:40.569Z,76.79
2023-01-02T01:16:15.136Z,76.27
2023-01-02T01:18:43.885Z,75.36
2023-01-02T01:21:20.759Z,75.41
2023-01-02T01:23:56.782Z,75.44
2023-01-02T01:26:25.523Z,75.13
2023-01-02T01:28:55.495Z,75.46
2023-01-02T01:31:24.621Z,75.61
2023-01-02T01:33:53.026Z,75.00
2023-01-02T01:36:24.852Z,74.36
2023-01-02T01:38:53.317Z,73.98
2023-01-02T01:41:24.638Z,74.40
2023-01-02T01:43:59.032Z,74.24
2023-01-02T01:46:36.744Z,73.58
2023-01-02T01:49:14.077Z,73.22
2023-01-02T01:51:53.991Z,73.24
2023-01-02T01:54:31.737Z,72.44
2023-01-02T01:57:05.871Z,72.04
2023-01-02T01:59:36.393Z,72.21
2023-01-02T02:02:04.911Z,71.75
2023-01-02T02:04:33.580Z,71.86
2023-01-02T02:07:02.341Z,71.84
2023-01-02T02:09:45.691Z,71.21
2023-01-02T02:12:15.429Z,71.23
2023-01-02T02:14:43.723Z,70.75
2023-01-02T02:17:30.603Z,70.69
2023-01-02T02:20:25.732Z,70.62
2023-01-02T02:23:33.372Z,70.62
2023-01-02T02:26:13.731Z,70.36
2023-01-02T02:29:12.576Z,69.83
2023-01-02T02:31:52.483Z,69.38
2023-01-02T02:34:35.889Z,69.13
2023-01-02T02:37:30.967Z,68.82
2023-01-02T02:40:04.951Z,68.82
2023-01-02T02:43:10.465Z,68.34
2023-01-02T02:45:50.152Z,67.72
2023-01-02T02:48:27.779Z,66.25
2023-01-02T02:51:14.426Z,67.20
2023-01-02T02:53:55.824Z,66.77
2023-01-02T02:56:28.629Z,65.46
2023-01-02T02:59:00.997Z,64.13
2023-01-02T03:01:31.383Z,64.49
2023-01-02T03:04:00.232Z,64.08
2023-01-02T03:06:37.393Z,61.85
2023-01-02T03:09:28.248Z,64.27
2023-01-02T03:12:15.911Z,63.27
2023-01-02T03:15:05.714Z,63.11
2023-01-02T03:18:15.095Z,62.18
2023-01-02T03:20:48.601Z,63.05
2023-01-02T03:23:25.192Z,61.88
2023-01-02T03:25:54.651Z,62.16
2023-01-02T03:28:27.446Z,62.51
2023-01-02T03:31:01.065Z,62.64
2023-01-02T03:33:34.219Z,62.78
2023-01-02T03:36:07.571Z,61.93
2023-01-02T03:38:42.579Z,60.70
2023-01-02T03:41:22.554Z,60.94
2023-01-02T03:43:57.000Z,60.49
2023-01-02T03:46:36.453Z,61.96
2023-01-02T03:49:35.848Z,61.72
2023-01-02T03:52:04.245Z,61.65
2023-01-02T03:54:33.092Z,61.90
2023-01-02T03:57:15.649Z,61.52
2023-01-02T04:00:12.074Z,60.76
2023-01-02T04:02:46.259Z,59.95
2023-01-02T04:05:47.184Z,61.80
2023-01-02T04:08:25.344Z,61.64
2023-01-02T04:10:58.932Z,61.50
2023-01-02T04:13:47.628Z,61.12
2023-01-02T04:16:22.244Z,60.56
2023-01-02T04:19:02.677Z,61.54
2023-01-02T04:21:35.425Z,60.71
2023-01-02T04:24:11.557Z,60.61
2023-01-02T04:27:11.956Z,60.32
2023-01-02T04:29:40.822Z,59.62
2023-01-02T04:32:24.257Z,58.08
2023-01-02T04:34:54.435Z,58.56
2023-01-02T04:37:35.495Z,57.37
2023-01-02T04:40:28.963Z,58.59
2023-01-02T04:42:57.537Z,58.51
2023-01-02T04:45:25.926Z,58.53
2023-01-02T04:47:54.239Z,58.93
2023-01-02T04:50:22.917Z,56.70
2023-01-02T04:52:51.260Z,56.04
2023-01-02T04:55:19.552Z,56.47
2023-01-02T04:57:48.117Z,56.35
2023-01-02T05:00:16.809Z,57.32
2023-01-02T05:02:45.209Z,56.74
2023-01-02T05:05:13.649Z,55.16
2023-01-02T05:07:42.023Z,55.93
2023-01-02T05:10:10.979Z,55.57
2023-01-02T05:12:40.612Z,55.25
2023-01-02T05:15:11.588Z,56.79
2023-01-02T05:17:42.407Z,56.03
2023-01-02T05:20:15.469Z,56.25
2023-01-02T05:23:03.623Z,55.86
2023-01-02T05:25:36.803Z,55.53
2023-01-02T05:28:05.814Z,55.39
2023-01-02T05:30:34.260Z,54.08
2023-01-02T05:33:02.692Z,53.66
2023-01-02T05:35:33.349Z,54.73
2023-01-02T05:38:02.675Z,54.35
2023-01-02T05:40:31.777Z,55.28
2023-01-02T05:43:00.625Z,54.72
2023-01-02T05:45:29.434Z,54.85
2023-01-02T05:47:57.785Z,53.50
2023-01-02T05:50:26.107Z,55.53
2023-01-02T05:52:54.435Z,54.17
2023-01-02T05:55:22.865Z,54.38
2023-01-02T05:57:55.188Z,54.03
2023-01-02T06:00:23.572Z,53.64
2023-01-02T06:02:52.218Z,52.86
2023-01-02T06:05:20.571Z,53.51
2023-01-02T06:07:48.905Z,54.25
2023-01-02T06:10:17.298Z,54.13
2023-01-02T06:12:45.567Z,53.82
2023-01-02T06:15:13.849Z,53.74
2023-01-02T06:17:42.235Z,52.73
2023-01-02T06:20:11.089Z,52.17
2023-01-02T06:22:39.390Z,53.41
2023-01-02T06:25:08.124Z,52.61
2023-01-02T06:27:37.087Z,52.53
2023-01-02T06:30:05.859Z,52.26
2023-01-02T06:32:34.184Z,54.10
2023-01-02T06:35:05.255Z,52.41
2023-01-02T06:37:33.559Z,52.42
2023-01-02T06:40:01.864Z,53.21
2023-01-02T06:42:30.148Z,51.90
2023-01-02T06:44:58.500Z,53.17
2023-01-02T06:47:26.784Z,52.82
2023-01-02T06:49:55.048Z,52.92
2023-01-02T06:52:23.443Z,53.07
2023-01-02T06:54:51.755Z,53.54
2023-01-02T06:57:20.033Z,53.33
2023-01-02T06:59:48.370Z,53.40
2023-01-02T07:02:16.942Z,52.25
2023-01-02T07:04:45.316Z,53.96
2023-01-02T07:07:13.598Z,53.16
2023-01-02T07:09:41.882Z,52.50
2023-01-02T07:12:10.232Z,52.64
2023-01-02T07:14:38.528Z,52.30
2023-01-02T07:17:06.811Z,52.29
2023-01-02T07:19:35.190Z,52.18
2023-01-02T07:22:03.460Z,51.80
2023-01-02T07:24:31.848Z,52.48
2023-01-02T07:27:00.118Z,51.83
2023-01-02T07:29:28.551Z,52.47
2023-01-02T07:31:56.964Z,52.63
2023-01-02T07:34:25.293Z,52.82
2023-01-02T07:36:53.597Z,52.33
2023-01-02T07:39:23.159Z,51.72
2023-01-02T07:41:51.477Z,52.87
2023-01-02T07:44:19.820Z,52.39
2023-01-02T07:46:48.129Z,52.58
2023-01-02T07:49:16.495Z,52.56
2023-01-02T07:51:44.773Z,52.67
2023-01-02T07:54:13.112Z,52.64
2023-01-02T07:56:41.412Z,52.60
2023-01-02T07:59:09.893Z,53.29
2023-01-02T08:01:38.294Z,53.09
2023-01-02T08:04:06.708Z,53.28
2023-01-02T08:06:35.271Z,53.00
2023-01-02T08:09:03.565Z,53.37
2023-01-02T08:11:31.962Z,53.29
2023-01-02T08:14:00.346Z,53.29
2023-01-02T08:16:29.106Z,52.91
2023-01-02T08:19:00.865Z,53.83
2023-01-02T08:21:29.386Z,52.76
2023-01-02T08:23:59.624Z,53.53
2023-01-02T08:26:27.969Z,54.16
2023-01-02T08:28:56.277Z,52.98
2023-01-02T08:31:24.924Z,53.53
2023-01-02T08:33:53.547Z,53.60
2023-01-02T08:36:22.304Z,53.75
2023-01-02T08:38:50.855Z,54.09
2023-01-02T08:41:36.209Z,54.00
2023-01-02T08:44:04.878Z,54.55
2023-01-02T08:46:40.070Z,54.46
2023-01-02T08:49:10.542Z,52.25
2023-01-02T08:51:38.976Z,53.82
2023-01-02T08:54:07.411Z,51.89
2023-01-02T08:56:36.914Z,53.18
2023-01-02T08:59:08.244Z,52.55
2023-01-02T09:01:37.786Z,53.26
2023-01-02T09:04:11.917Z,53.00
2023-01-02T09:06:41.842Z,53.75
2023-01-02T09:09:12.399Z,53.68
2023-01-02T09:11:51.608Z,54.17
2023-01-02T09:14:22.298Z,54.26
2023-01-02T09:16:55.873Z,54.40
2023-01-02T09:19:24.133Z,54.45
2023-01-02T09:21:52.504Z,54.88
2023-01-02T09:24:20.821Z,54.64
2023-01-02T09:26:49.256Z,54.63
2023-01-02T09:29:17.651Z,54.47
2023-01-02T09:31:46.012Z,54.87
2023-01-02T09:34:14.728Z,54.84
2023-01-02T09:36:44.102Z,55.04
2023-01-02T09:39:13.616Z,54.98
2023-01-02T09:41:54.283Z,54.83
2023-01-02T09:44:41.208Z,54.36
2023-01-02T09:47:13.557Z,54.78
2023-01-02T09:49:51.301Z,54.94
2023-01-02T09:52:45.403Z,54.74
2023-01-02T09:56:00.341Z,54.96
2023-01-02T09:58:34.467Z,54.91
2023-01-02T10:01:04.008Z,54.67
2023-01-02T10:04:01.671Z,55.66
2023-01-02T10:06:55.874Z,55.06
2023-01-02T10:09:43.345Z,54.74
2023-01-02T10:12:47.162Z,55.23
2023-01-02T10:15:21.273Z,55.32
2023-01-02T10:17:53.556Z,55.37
2023-01-02T10:20:29.085Z,55.63
2023-01-02T10:23:17.331Z,55.55
2023-01-02T10:25:57.562Z,55.39
2023-01-02T10:28:26.272Z,55.88
2023-01-02T10:31:07.019Z,56.12
2023-01-02T10:34:02.774Z,55.92
2023-01-02T10:36:41.017Z,55.82
2023-01-02T10:39:21.043Z,56.15
2023-01-02T10:41:55.137Z,56.20
2023-01-02T10:44:38.693Z,56.79
2023-01-02T10:47:23.924Z,56.63
2023-01-02T10:49:57.251Z,56.79
2023-01-02T10:52:49.959Z,56.80
2023-01-02T10:55:39.333Z,57.11
2023-01-02T10:58:29.526Z,57.10
2023-01-02T11:01:20.779Z,57.25
2023-01-02T11:03:55.532Z,57.48
2023-01-02T11:06:38.976Z,57.85
2023-01-02T11:09:21.720Z,57.63
2023-01-02T11:11:56.312Z,57.61
2023-01-02T11:14:32.219Z,58.08
2023-01-02T11:17:05.810Z,58.37
2023-01-02T11:19:51.930Z,58.57
2023-01-02T11:22:34.334Z,58.70
2023-01-02T11:25:14.438Z,58.85
2023-01-02T11:27:45.697Z,58.61
2023-01-02T11:30:39.879Z,59.29
2023-01-02T11:33:20.482Z,59.15
2023-01-02T11:35:58.072Z,59.03
2023-01-02T11:38:41.148Z,59.00
2023-01-02T11:41:23.481Z,58.98
2023-01-02T11:43:58.422Z,59.35
2023-01-02T11:46:39.330Z,59.45
2023-01-02T11:49:29.717Z,59.81
2023-01-02T11:52:04.250Z,59.68
2023-01-02T11:54:45.395Z,59.96
2023-01-02T11:57:20.369Z,59.84
2023-01-02T11:59:51.476Z,61.02
2023-01-02T12:02:31.358Z,60.37
2023-01-02T12:04:59.714Z,60.99
2023-01-02T12:07:46.919Z,60.69
2023-01-02T12:10:28.387Z,61.02
2023-01-02T12:13:18.161Z,60.38
2023-01-02T12:16:08.080Z,60.54
2023-01-02T12:19:09.790Z,60.37
2023-01-02T12:21:47.051Z,60.19
2023-01-02T12:24:45.709Z,60.37
2023-01-02T12:27:33.354Z,60.23
2023-01-02T12:30:35.067Z,59.93
2023-01-02T12:33:29.217Z,60.55
2023-01-02T12:36:25.458Z,60.90
2023-01-02T12:39:12.942Z,60.85
2023-01-02T12:42:27.347Z,60.99
2023-01-02T12:45:00.357Z,60.89
2023-01-02T12:48:12.943Z,62.48
2023-01-02T12:51:08.414Z,61.74
2023-01-02T12:53:48.513Z,62.32
2023-01-02T12:56:55.336Z,65.54
2023-01-02T12:59:50.411Z,65.85
2023-01-02T13:02:49.642Z,64.55
2023-01-02T13:05:36.389Z,63.67
2023-01-02T13:08:23.588Z,64.80
2023-01-02T13:10:52.613Z,64.85
2023-01-02T13:13:26.601Z,64.07
2023-01-02T13:16:03.781Z,63.77
2023-01-02T13:19:00.551Z,62.93
2023-01-02T13:21:42.626Z,62.39
2023-01-02T13:24:17.196Z,62.86
2023-01-02T13:26:45.702Z,63.17
2023-01-02T13:29:14.014Z,63.62
2023-01-02T13:31:49.104Z,64.13
2023-01-02T13:34:29.561Z,63.80
2023-01-02T13:37:14.535Z,63.74
2023-01-02T13:39:42.783Z,63.11
2023-01-02T13:42:42.432Z,63.23
2023-01-02T13:46:05.262Z,62.81
2023-01-02T13:48:41.012Z,63.15
2023-01-02T13:51:22.135Z,64.36
2023-01-02T13:53:53.134Z,63.77
2023-01-02T13:56:22.727Z,64.09
2023-01-02T13:59:02.647Z,63.57
2023-01-02T14:02:04.295Z,62.99
2023-01-02T14:04:36.145Z,63.40
2023-01-02T14:07:26.005Z,62.82
2023-01-02T14:10:12.204Z,62.64
2023-01-02T14:12:53.623Z,62.74
2023-01-02T14:15:26.206Z,63.17
2023-01-02T14:18:06.140Z,63.08
2023-01-02T14:20:43.999Z,63.22
2023-01-02T14:23:28.453Z,63.48
2023-01-02T14:25:57.750Z,63.81
2023-01-02T14:28:31.419Z,63.75
2023-01-02T14:31:02.833Z,63.76
2023-01-02T14:33:35.951Z,63.26
2023-01-02T14:36:09.885Z,62.77
2023-01-02T14:38:58.462Z,63.33
2023-01-02T14:42:10.021Z,63.29
2023-01-02T14:44:49.030Z,62.91
2023-01-02T14:47:24.290Z,62.56
2023-01-02T14:49:59.283Z,63.20
2023-01-02T14:52:34.846Z,63.00
2023-01-02T14:55:21.207Z,64.36
2023-01-02T14:57:52.144Z,65.49
2023-01-02T15:00:35.575Z,68.19
2023-01-02T15:03:32.994Z,66.94
2023-01-02T15:06:09.510Z,65.76
2023-01-02T15:08:48.652Z,65.21
2023-01-02T15:11:41.842Z,64.87
2023-01-02T15:14:23.592Z,65.39
2023-01-02T15:17:01.629Z,65.15
2023-01-02T15:19:36.102Z,65.19
2023-01-02T15:22:18.149Z,65.21
2023-01-02T15:24:51.795Z,65.26
2023-01-02T15:27:28.667Z,66.36
2023-01-02T15:30:03.001Z,66.22
2023-01-02T15:32:34.448Z,66.15
2023-01-02T15:35:14.404Z,65.81
2023-01-02T15:37:44.977Z,66.56
2023-01-02T15:40:33.011Z,67.02
2023-01-02T15:43:32.518Z,66.46
2023-01-02T15:46:01.165Z,66.58
2023-01-02T15:48:30.586Z,67.20
2023-01-02T15:51:00.849Z,69.95
2023-01-02T15:53:53.650Z,68.12
2023-01-02T15:56:39.696Z,67.17
2023-01-02T15:59:37.968Z,67.84
2023-01-02T16:02:08.364Z,67.82
2023-01-02T16:04:36.949Z,67.82
2023-01-02T16:07:27.611Z,70.20
2023-01-02T16:09:57.541Z,70.59
2023-01-02T16:12:26.132Z,70.15
2023-01-02T16:14:58.190Z,69.12
2023-01-02T16:17:36.031Z,68.94
2023-01-02T16:20:15.641Z,68.38
2023-01-02T16:23:08.242Z,69.14
2023-01-02T16:25:44.287Z,69.24
2023-01-02T16:28:35.191Z,68.46
2023-01-02T16:31:09.961Z,68.91
2023-01-02T16:33:39.212Z,69.66
2023-01-02T16:36:09.287Z,68.21
2023-01-02T16:38:55.492Z,69.17
2023-01-02T16:41:36.124Z,69.56
2023-01-02T16:44:13.820Z,68.66
2023-01-02T16:46:44.106Z,70.88
2023-01-02T16:49:17.931Z,72.34
2023-01-02T16:51:49.610Z,72.02
2023-01-02T16:54:20.462Z,70.23
2023-01-02T16:56:49.953Z,72.86
2023-01-02T16:59:18.259Z,73.67
2023-01-02T17:01:46.569Z,72.60
2023-01-02T17:04:16.415Z,70.21
2023-01-02T17:06:44.696Z,71.70
2023-01-02T17:09:13.037Z,71.09
2023-01-02T17:12:00.891Z,71.09
2023-01-02T17:14:34.502Z,70.88
2023-01-02T17:17:02.871Z,70.37
2023-01-02T17:19:31.730Z,71.14
2023-01-02T17:22:00.059Z,70.20
2023-01-02T17:24:28.393Z,69.16
2023-01-02T17:26:56.721Z,69.75
2023-01-02T17:29:25.040Z,69.47
2023-01-02T17:31:53.359Z,70.36
2023-01-02T17:34:21.721Z,69.11
2023-01-02T17:36:50.084Z,69.75
2023-01-02T17:39:18.409Z,68.65
2023-01-02T17:41:46.761Z,70.53
2023-01-02T17:44:15.056Z,70.16
2023-01-02T17:49:31.602Z,70.47
2023-01-02T17:51:59.907Z,70.47
2023-01-02T17:54:28.201Z,70.03
2023-01-02T17:56:56.576Z,70.87
2023-01-02T17:59:25.422Z,71.16
2023-01-02T18:01:55.127Z,69.85
2023-01-02T18:04:23.560Z,70.41
2023-01-02T18:06:51.837Z,70.81
2023-01-02T18:09:20.167Z,68.75
2023-01-02T18:11:48.468Z,68.95
2023-01-02T18:14:23.306Z,68.34
2023-01-02T18:16:52.543Z,69.15
2023-01-02T18:19:26.425Z,69.52
2023-01-02T18:21:55.293Z,69.69
2023-01-02T18:24:33.010Z,70.53
2023-01-02T18:27:12.346Z,71.01
2023-01-02T18:29:42.240Z,71.02
2023-01-02T18:32:19.281Z,71.61
2023-01-02T18:34:48.921Z,71.77
2023-01-02T18:37:28.668Z,70.10
2023-01-02T18:39:58.687Z,71.57
2023-01-02T18:42:29.775Z,71.67
2023-01-02T18:45:00.938Z,73.09
2023-01-02T18:47:35.429Z,74.40
2023-01-02T18:50:40.663Z,75.66
2023-01-02T18:53:23.833Z,76.18
2023-01-02T18:55:56.693Z,75.89
2023-01-02T18:58:44.832Z,74.51
2023-01-02T19:01:29.321Z,74.29
2023-01-02T19:04:27.129Z,73.54
2023-01-02T19:06:58.823Z,73.65
2023-01-02T19:09:36.843Z,74.43
2023-01-02T19:12:43.018Z,73.94
2023-01-02T19:15:44.551Z,74.13
2023-01-02T19:18:15.589Z,73.01
2023-01-02T19:20:46.443Z,75.56
2023-01-02T19:23:44.880Z,77.07
2023-01-02T19:26:28.810Z,76.42
2023-01-02T19:29:04.997Z,75.55
2023-01-02T19:31:47.044Z,74.89
2023-01-02T19:34:51.102Z,75.30
2023-01-02T19:37:41.229Z,75.30
2023-01-02T19:40:19.527Z,73.67
2023-01-02T19:42:54.291Z,72.11
2023-01-02T19:45:25.184Z,70.13
2023-01-02T19:47:54.924Z,72.17
2023-01-02T19:50:25.855Z,72.17
2023-01-02T19:52:55.173Z,73.64
2023-01-02T19:55:23.499Z,73.11
2023-01-02T19:57:51.806Z,72.63
2023-01-02T20:00:20.571Z,72.62
2023-01-02T20:02:51.523Z,72.09
2023-01-02T20:05:22.587Z,71.26
2023-01-02T20:07:53.000Z,71.27
2023-01-02T20:10:22.710Z,70.02
2023-01-02T20:12:51.238Z,69.76
2023-01-02T20:15:24.207Z,70.69
2023-01-02T20:17:53.979Z,71.24
2023-01-02T20:20:25.108Z,70.70
2023-01-02T20:22:53.770Z,70.78
2023-01-02T20:25:25.502Z,71.91
2023-01-02T20:27:56.760Z,71.71
2023-01-02T20:30:26.285Z,71.28
2023-01-02T20:32:55.573Z,71.70
2023-01-02T20:35:24.087Z,72.30
2023-01-02T20:37:52.638Z,71.49
2023-01-02T20:40:20.954Z,70.07
2023-01-02T20:42:49.222Z,70.58
2023-01-02T20:45:17.565Z,71.68
2023-01-02T20:47:45.886Z,71.53
2023-01-02T20:50:14.197Z,70.68
2023-01-02T20:52:42.503Z,70.92
2023-01-02T20:55:11.639Z,70.68
2023-01-02T20:57:39.929Z,70.13
2023-01-02T21:00:11.885Z,70.68
2023-01-02T21:02:40.362Z,70.39
2023-01-02T21:05:09.077Z,72.24
2023-01-02T21:07:37.366Z,70.59
2023-01-02T21:10:06.031Z,71.00
2023-01-02T21:12:52.644Z,71.06
2023-01-02T21:15:39.314Z,70.95
2023-01-02T21:18:07.626Z,70.03
2023-01-02T21:20:38.823Z,72.07
2023-01-02T21:23:11.372Z,70.86
2023-01-02T21:25:40.435Z,70.39
2023-01-02T21:28:09.822Z,70.19
2023-01-02T21:30:38.097Z,70.30
2023-01-02T21:33:06.461Z,69.80
2023-01-02T21:35:36.226Z,69.94
2023-01-02T21:38:04.899Z,71.38
2023-01-02T21:40:33.192Z,71.05
2023-01-02T21:43:01.674Z,69.92
2023-01-02T21:45:29.972Z,70.63
2023-01-02T21:47:58.456Z,69.88
2023-01-02T21:50:27.540Z,69.69
2023-01-02T21:52:56.233Z,69.64
2023-01-02T21:55:25.229Z,70.05
2023-01-02T21:58:15.204Z,70.48
2023-01-02T22:00:44.150Z,70.21
2023-01-02T22:03:12.729Z,70.52
2023-01-02T22:05:41.411Z,71.39
2023-01-02T22:08:09.953Z,70.44
2023-01-02T22:10:38.636Z,70.75
2023-01-02T22:13:06.992Z,69.89
2023-01-02T22:15:35.297Z,69.87
2023-01-02T22:18:03.644Z,69.87
2023-01-02T22:20:32.002Z,69.67
2023-01-02T22:23:00.353Z,70.48
2023-01-02T22:25:29.061Z,70.79
2023-01-02T22:27:57.478Z,70.67
2023-01-02T22:30:33.377Z,70.38
2023-01-02T22:33:02.470Z,70.29
2023-01-02T22:35:30.962Z,70.68
2023-01-02T22:38:00.311Z,70.22
2023-01-02T22:40:30.019Z,70.96
2023-01-02T22:43:02.160Z,70.21
2023-01-02T22:45:46.826Z,70.41
2023-01-02T22:48:24.981Z,70.51
2023-01-02T22:50:56.455Z,70.94
2023-01-02T22:53:30.488Z,69.87
2023-01-02T22:55:59.457Z,69.61
2023-01-02T22:58:27.934Z,69.38
2023-01-02T23:01:04.153Z,70.03
2023-01-02T23:03:40.097Z,71.04
2023-01-02T23:06:08.650Z,71.92
2023-01-02T23:08:36.996Z,72.34
2023-01-02T23:11:07.467Z,73.02
2023-01-02T23:13:37.151Z,71.10
2023-01-02T23:16:24.362Z,72.85
2023-01-02T23:19:11.073Z,72.57
2023-01-02T23:21:40.305Z,72.43
2023-01-02T23:24:09.267Z,72.09
2023-01-02T23:26:42.322Z,71.92
2023-01-02T23:29:12.246Z,72.87
2023-01-02T23:31:43.530Z,71.87
2023-01-02T23:34:14.226Z,72.45
2023-01-02T23:36:43.533Z,71.64
2023-01-02T23:39:17.875Z,71.85
2023-01-02T23:41:46.930Z,72.71
2023-01-02T23:44:16.485Z,72.94
2023-01-02T23:46:46.345Z,73.16
2023-01-02T23:49:17.055Z,72.97
2023-01-02T23:51:45.952Z,72.80
2023-01-02T23:54:16.507Z,72.08
2023-01-02T23:56:47.992Z,71.10
2023-01-02T23:59:22.457Z,71.15
